createdAt,value
2022-10-06T00:00:18.204Z,0.00
2022-10-06T00:01:18.334Z,0.00
2022-10-06T00:02:18.258Z,0.00
2022-10-06T00:03:18.171Z,0.00
2022-10-06T00:04:18.148Z,0.00
2022-10-06T00:05:18.130Z,0.00
2022-10-06T00:06:18.152Z,0.00
2022-10-06T00:07:18.101Z,0.00
2022-10-06T00:08:18.100Z,0.00
2022-10-06T00:09:18.080Z,0.00
2022-10-06T00:10:18.082Z,0.00
2022-10-06T00:11:18.089Z,0.00
2022-10-06T00:12:18.055Z,0.00
2022-10-06T00:13:18.028Z,0.00
2022-10-06T00:14:18.011Z,0.00
2022-10-06T00:15:18.000Z,0.00
2022-10-06T00:16:18.129Z,0.00
2022-10-06T00:17:17.971Z,0.00
2022-10-06T00:18:17.968Z,0.00
2022-10-06T00:19:17.951Z,0.00
2022-10-06T00:20:17.961Z,0.00
2022-10-06T00:21:17.972Z,0.00
2022-10-06T00:22:17.922Z,0.00
2022-10-06T00:23:17.891Z,0.00
2022-10-06T00:24:17.882Z,0.00
2022-10-06T00:25:17.861Z,0.00
2022-10-06T00:26:17.888Z,0.00
2022-10-06T00:27:17.870Z,0.00
2022-10-06T00:28:17.939Z,0.00
2022-10-06T00:29:17.810Z,0.00
2022-10-06T00:30:17.831Z,0.00
2022-10-06T00:31:17.960Z,0.00
2022-10-06T00:32:17.793Z,0.00
2022-10-06T00:33:17.792Z,0.00
2022-10-06T00:34:17.831Z,0.00
2022-10-06T00:35:18.412Z,0.00
2022-10-06T00:36:17.802Z,0.00
2022-10-06T00:37:17.701Z,0.00
2022-10-06T00:38:17.700Z,0.00
2022-10-06T00:39:17.681Z,0.00
2022-10-06T00:40:17.671Z,0.00
2022-10-06T00:41:17.941Z,0.00
2022-10-06T00:42:17.652Z,0.00
2022-10-06T00:43:17.642Z,0.00
2022-10-06T00:44:17.623Z,0.00
2022-10-06T00:45:17.604Z,0.00
2022-10-06T00:46:17.705Z,0.00
2022-10-06T00:47:17.581Z,0.00
2022-10-06T00:48:17.568Z,0.00
2022-10-06T00:49:17.561Z,0.00
2022-10-06T00:50:17.540Z,0.00
2022-10-06T00:51:17.832Z,0.00
2022-10-06T00:52:17.524Z,0.00
2022-10-06T00:53:17.500Z,0.00
2022-10-06T00:54:17.522Z,0.00
2022-10-06T00:55:17.471Z,0.00
2022-10-06T00:56:17.498Z,0.00
2022-10-06T00:57:17.451Z,0.00
2022-10-06T00:58:17.443Z,0.00
2022-10-06T00:59:17.421Z,0.00
2022-10-06T01:00:17.434Z,0.00
2022-10-06T01:01:17.532Z,0.00
2022-10-06T01:02:17.472Z,0.00
2022-10-06T01:03:17.373Z,0.00
2022-10-06T01:04:17.372Z,0.00
2022-10-06T01:05:17.359Z,0.00
2022-10-06T01:06:17.363Z,0.00
2022-10-06T01:07:17.322Z,0.00
2022-10-06T01:08:17.332Z,0.00
2022-10-06T01:09:17.292Z,0.00
2022-10-06T01:10:17.282Z,0.00
2022-10-06T01:11:17.290Z,0.00
2022-10-06T01:12:17.298Z,0.00
2022-10-06T01:13:17.239Z,0.00
2022-10-06T01:14:17.231Z,0.00
2022-10-06T01:15:17.232Z,0.00
2022-10-06T01:16:17.331Z,0.00
2022-10-06T01:17:18.644Z,0.00
2022-10-06T01:18:17.187Z,0.00
2022-10-06T01:19:17.162Z,0.00
2022-10-06T01:20:17.150Z,0.00
2022-10-06T01:21:17.165Z,0.00
2022-10-06T01:22:17.132Z,0.00
2022-10-06T01:23:17.121Z,0.00
2022-10-06T01:24:17.110Z,0.00
2022-10-06T01:25:17.080Z,0.00
2022-10-06T01:26:17.110Z,0.00
2022-10-06T01:27:17.082Z,0.00
2022-10-06T01:28:17.111Z,0.00
2022-10-06T01:29:17.042Z,0.00
2022-10-06T01:30:17.032Z,0.00
2022-10-06T01:31:17.104Z,0.00
2022-10-06T01:32:17.001Z,0.00
2022-10-06T01:33:16.990Z,0.00
2022-10-06T01:34:16.987Z,0.00
2022-10-06T01:35:16.965Z,0.00
2022-10-06T01:36:16.971Z,0.00
2022-10-06T01:37:16.939Z,0.00
2022-10-06T01:38:16.921Z,0.00
2022-10-06T01:39:16.900Z,0.00
2022-10-06T01:40:16.891Z,0.00
2022-10-06T01:41:16.923Z,0.00
2022-10-06T01:42:16.881Z,0.00
2022-10-06T01:43:16.848Z,0.00
2022-10-06T01:44:16.850Z,0.00
2022-10-06T01:45:16.824Z,0.00
2022-10-06T01:46:16.911Z,0.00
2022-10-06T01:47:16.810Z,0.00
2022-10-06T01:48:16.820Z,0.00
2022-10-06T01:49:16.783Z,0.00
2022-10-06T01:50:16.759Z,0.00
2022-10-06T01:51:16.784Z,0.00
2022-10-06T01:52:16.730Z,0.00
2022-10-06T01:53:16.730Z,0.00
2022-10-06T01:54:16.711Z,0.00
2022-10-06T01:55:16.729Z,0.00
2022-10-06T01:56:16.713Z,0.00
2022-10-06T01:57:16.681Z,0.00
2022-10-06T01:58:16.661Z,0.00
2022-10-06T01:59:16.660Z,0.00
2022-10-06T02:00:16.631Z,0.00
2022-10-06T02:01:16.716Z,0.00
2022-10-06T02:02:16.624Z,0.00
2022-10-06T02:03:17.548Z,0.00
2022-10-06T02:04:16.646Z,0.00
2022-10-06T02:05:16.579Z,0.00
2022-10-06T02:06:16.628Z,0.00
2022-10-06T02:07:16.550Z,0.00
2022-10-06T02:08:16.519Z,0.00
2022-10-06T02:09:16.527Z,0.00
2022-10-06T02:10:16.519Z,0.00
2022-10-06T02:11:16.509Z,0.00
2022-10-06T02:12:16.470Z,0.00
2022-10-06T02:13:16.467Z,0.00
2022-10-06T02:14:16.442Z,0.00
2022-10-06T02:15:16.460Z,0.00
2022-10-06T02:16:16.560Z,0.00
2022-10-06T02:17:16.433Z,0.00
2022-10-06T02:18:16.392Z,0.00
2022-10-06T02:19:16.400Z,0.00
2022-10-06T02:20:16.383Z,0.00
2022-10-06T02:21:16.389Z,0.00
2022-10-06T02:22:16.360Z,0.00
2022-10-06T02:23:16.348Z,0.00
2022-10-06T02:24:16.310Z,0.00
2022-10-06T02:25:16.300Z,0.00
2022-10-06T02:26:16.347Z,0.00
2022-10-06T02:27:16.299Z,0.00
2022-10-06T02:28:16.340Z,0.00
2022-10-06T02:29:16.261Z,0.00
2022-10-06T02:30:16.243Z,0.00
2022-10-06T02:31:16.323Z,0.00
2022-10-06T02:32:16.208Z,0.00
2022-10-06T02:33:16.288Z,0.00
2022-10-06T02:34:16.209Z,0.00
2022-10-06T02:35:16.178Z,0.00
2022-10-06T02:36:16.192Z,0.00
2022-10-06T02:37:16.159Z,0.00
2022-10-06T02:38:16.151Z,0.00
2022-10-06T02:39:16.126Z,0.00
2022-10-06T02:40:16.110Z,0.00
2022-10-06T02:41:16.151Z,0.00
2022-10-06T02:42:16.085Z,0.00
2022-10-06T02:43:16.080Z,0.00
2022-10-06T02:44:16.060Z,0.00
2022-10-06T02:45:16.039Z,0.00
2022-10-06T02:46:16.117Z,0.00
2022-10-06T02:47:16.024Z,0.00
2022-10-06T02:48:16.009Z,0.00
2022-10-06T02:49:16.030Z,0.00
2022-10-06T02:50:16.004Z,0.00
2022-10-06T02:51:16.021Z,0.00
2022-10-06T02:52:15.968Z,0.00
2022-10-06T02:53:16.001Z,0.00
2022-10-06T02:54:16.688Z,0.00
2022-10-06T02:55:15.925Z,0.00
2022-10-06T02:56:16.002Z,0.00
2022-10-06T02:57:15.896Z,0.00
2022-10-06T02:58:15.889Z,0.00
2022-10-06T02:59:15.869Z,0.00
2022-10-06T03:00:15.913Z,0.00
2022-10-06T03:01:15.970Z,0.00
2022-10-06T03:02:15.903Z,0.00
2022-10-06T03:03:15.821Z,0.00
2022-10-06T03:04:15.799Z,0.00
2022-10-06T03:05:15.805Z,0.00
2022-10-06T03:06:15.801Z,0.00
2022-10-06T03:07:15.759Z,0.00
2022-10-06T03:08:15.738Z,0.00
2022-10-06T03:09:15.733Z,0.00
2022-10-06T03:10:15.798Z,0.00
2022-10-06T03:11:15.739Z,0.00
2022-10-06T03:12:15.698Z,0.00
2022-10-06T03:13:15.687Z,0.00
2022-10-06T03:14:20.536Z,0.00
2022-10-06T03:15:16.658Z,0.00
2022-10-06T03:16:15.718Z,0.00
2022-10-06T03:17:15.642Z,0.00
2022-10-06T03:18:15.623Z,0.00
2022-10-06T03:19:15.608Z,0.00
2022-10-06T03:20:15.588Z,0.00
2022-10-06T03:21:15.609Z,0.00
2022-10-06T03:22:15.568Z,0.00
2022-10-06T03:23:15.569Z,0.00
2022-10-06T03:24:15.539Z,0.00
2022-10-06T03:25:15.550Z,0.00
2022-10-06T03:26:15.538Z,0.00
2022-10-06T03:27:16.450Z,0.00
2022-10-06T03:28:15.528Z,0.00
2022-10-06T03:29:15.480Z,0.00
2022-10-06T03:30:15.459Z,0.00
2022-10-06T03:31:15.538Z,0.00
2022-10-06T03:32:15.438Z,0.00
2022-10-06T03:33:15.418Z,0.00
2022-10-06T03:34:15.408Z,0.00
2022-10-06T03:35:15.398Z,0.00
2022-10-06T03:36:15.420Z,0.00
2022-10-06T03:37:15.378Z,0.00
2022-10-06T03:38:15.356Z,0.00
2022-10-06T03:39:15.350Z,0.00
2022-10-06T03:40:15.996Z,0.00
2022-10-06T03:41:15.348Z,0.00
2022-10-06T03:42:15.326Z,0.00
2022-10-06T03:43:15.301Z,0.00
2022-10-06T03:44:15.279Z,0.00
2022-10-06T03:45:15.269Z,0.00
2022-10-06T03:46:15.325Z,0.00
2022-10-06T03:47:17.433Z,0.00
2022-10-06T03:48:15.230Z,0.00
2022-10-06T03:49:15.230Z,0.00
2022-10-06T03:50:15.207Z,0.00
2022-10-06T03:51:15.227Z,0.00
2022-10-06T03:52:15.176Z,0.00
2022-10-06T03:53:15.159Z,0.00
2022-10-06T03:54:15.159Z,0.00
2022-10-06T03:55:15.137Z,0.00
2022-10-06T03:56:15.158Z,0.00
2022-10-06T03:57:15.115Z,0.00
2022-10-06T03:58:15.099Z,0.00
2022-10-06T03:59:15.087Z,0.00
2022-10-06T04:00:15.076Z,0.00
2022-10-06T04:01:15.181Z,0.00
2022-10-06T04:02:15.093Z,0.00
2022-10-06T04:03:15.038Z,0.00
2022-10-06T04:04:15.021Z,0.00
2022-10-06T04:05:15.019Z,0.00
2022-10-06T04:06:15.020Z,0.00
2022-10-06T04:07:14.977Z,0.00
2022-10-06T04:08:14.974Z,0.00
2022-10-06T04:09:15.921Z,0.00
2022-10-06T04:10:14.938Z,0.00
2022-10-06T04:11:14.957Z,0.00
2022-10-06T04:12:14.907Z,0.00
2022-10-06T04:13:14.908Z,0.00
2022-10-06T04:14:14.887Z,0.00
2022-10-06T04:15:14.878Z,0.00
2022-10-06T04:16:14.951Z,0.00
2022-10-06T04:17:14.847Z,0.00
2022-10-06T04:18:14.847Z,0.00
2022-10-06T04:19:14.826Z,0.00
2022-10-06T04:20:14.848Z,0.00
2022-10-06T04:21:14.817Z,0.00
2022-10-06T04:22:14.787Z,0.00
2022-10-06T04:23:14.829Z,0.00
2022-10-06T04:24:14.763Z,0.00
2022-10-06T04:25:14.746Z,0.00
2022-10-06T04:26:14.807Z,0.00
2022-10-06T04:27:14.718Z,0.00
2022-10-06T04:28:14.725Z,0.00
2022-10-06T04:29:14.711Z,0.00
2022-10-06T04:30:14.696Z,0.00
2022-10-06T04:31:14.731Z,0.00
2022-10-06T04:32:14.663Z,0.00
2022-10-06T04:33:14.637Z,0.00
2022-10-06T04:34:14.636Z,0.00
2022-10-06T04:35:14.630Z,0.00
2022-10-06T04:36:14.655Z,0.00
2022-10-06T04:37:14.586Z,0.00
2022-10-06T04:38:14.577Z,0.00
2022-10-06T04:39:14.566Z,0.00
2022-10-06T04:40:14.592Z,0.00
2022-10-06T04:41:14.566Z,0.00
2022-10-06T04:42:14.534Z,0.00
2022-10-06T04:43:14.513Z,0.00
2022-10-06T04:44:14.507Z,0.00
2022-10-06T04:45:14.476Z,0.00
2022-10-06T04:46:40.860Z,0.00
2022-10-06T04:47:15.458Z,0.00
2022-10-06T04:48:14.446Z,0.00
2022-10-06T04:49:19.394Z,0.00
2022-10-06T04:50:15.426Z,0.00
2022-10-06T04:51:14.435Z,0.00
2022-10-06T04:52:14.405Z,0.00
2022-10-06T04:53:14.383Z,0.00
2022-10-06T04:54:14.421Z,0.00
2022-10-06T04:55:14.366Z,0.00
2022-10-06T04:56:14.376Z,0.00
2022-10-06T04:57:14.327Z,0.00
2022-10-06T04:58:14.337Z,0.00
2022-10-06T04:59:14.438Z,1.00
2022-10-06T05:00:15.176Z,0.00
2022-10-06T05:01:14.373Z,0.00
2022-10-06T05:02:14.273Z,1.00
2022-10-06T05:03:14.202Z,1.00
2022-10-06T05:04:14.276Z,0.00
2022-10-06T05:05:14.215Z,0.00
2022-10-06T05:06:14.199Z,2.00
2022-10-06T05:07:14.153Z,1.00
2022-10-06T05:08:14.196Z,0.00
2022-10-06T05:09:14.136Z,2.00
2022-10-06T05:10:14.116Z,1.00
2022-10-06T05:11:15.119Z,5.00
2022-10-06T05:12:14.987Z,4.00
2022-10-06T05:13:14.066Z,4.00
2022-10-06T05:14:15.007Z,1.00
2022-10-06T05:15:14.036Z,2.00
2022-10-06T05:16:14.182Z,3.00
2022-10-06T05:17:14.054Z,2.00
2022-10-06T05:18:14.006Z,5.00
2022-10-06T05:19:13.996Z,5.00
2022-10-06T05:20:13.977Z,4.00
2022-10-06T05:21:13.989Z,5.00
2022-10-06T05:22:13.965Z,7.00
2022-10-06T05:23:13.937Z,10.00
2022-10-06T05:24:13.931Z,11.00
2022-10-06T05:25:13.916Z,9.00
2022-10-06T05:26:13.925Z,10.00
2022-10-06T05:27:13.895Z,21.00
2022-10-06T05:28:13.917Z,18.00
2022-10-06T05:29:13.856Z,23.00
2022-10-06T05:30:13.853Z,22.00
2022-10-06T05:31:13.916Z,26.00
2022-10-06T05:32:13.840Z,33.00
2022-10-06T05:33:13.806Z,32.00
2022-10-06T05:34:13.795Z,34.00
2022-10-06T05:35:13.786Z,36.00
2022-10-06T05:36:13.816Z,35.00
2022-10-06T05:37:13.756Z,39.00
2022-10-06T05:38:13.769Z,45.00
2022-10-06T05:39:13.735Z,58.00
2022-10-06T05:40:13.724Z,59.00
2022-10-06T05:41:13.733Z,60.00
2022-10-06T05:42:13.703Z,67.00
2022-10-06T05:43:13.675Z,88.00
2022-10-06T05:44:13.743Z,103.00
2022-10-06T05:45:13.645Z,86.00
2022-10-06T05:46:13.696Z,65.00
2022-10-06T05:47:13.625Z,100.00
2022-10-06T05:48:13.615Z,122.00
2022-10-06T05:49:13.596Z,103.00
2022-10-06T05:50:13.587Z,108.00
2022-10-06T05:51:13.607Z,113.00
2022-10-06T05:52:13.565Z,118.00
2022-10-06T05:53:13.562Z,108.00
2022-10-06T05:54:13.540Z,122.00
2022-10-06T05:55:13.526Z,141.00
2022-10-06T05:56:13.562Z,162.00
2022-10-06T05:57:13.513Z,204.00
2022-10-06T05:58:18.339Z,231.00
2022-10-06T05:59:14.476Z,245.00
2022-10-06T06:00:13.465Z,253.00
2022-10-06T06:01:13.593Z,258.00
2022-10-06T06:02:13.679Z,261.00
2022-10-06T06:03:13.418Z,267.00
2022-10-06T06:04:13.405Z,279.00
2022-10-06T06:05:13.393Z,296.00
2022-10-06T06:06:13.424Z,298.00
2022-10-06T06:07:13.394Z,280.00
2022-10-06T06:08:13.362Z,339.00
2022-10-06T06:09:13.335Z,378.00
2022-10-06T06:10:13.325Z,366.00
2022-10-06T06:11:13.348Z,384.00
2022-10-06T06:12:13.304Z,385.00
2022-10-06T06:13:13.295Z,349.00
2022-10-06T06:14:13.293Z,316.00
2022-10-06T06:15:13.263Z,324.00
2022-10-06T06:16:14.760Z,329.00
2022-10-06T06:17:13.265Z,326.00
2022-10-06T06:18:13.314Z,327.00
2022-10-06T06:19:13.255Z,345.00
2022-10-06T06:20:13.202Z,362.00
2022-10-06T06:21:13.194Z,386.00
2022-10-06T06:22:13.233Z,416.00
2022-10-06T06:23:13.210Z,447.00
2022-10-06T06:24:13.143Z,447.00
2022-10-06T06:25:13.134Z,519.00
2022-10-06T06:26:13.125Z,519.00
2022-10-06T06:27:13.140Z,513.00
2022-10-06T06:28:13.133Z,402.00
2022-10-06T06:29:13.082Z,543.00
2022-10-06T06:30:13.072Z,471.00
2022-10-06T06:31:16.311Z,594.00
2022-10-06T06:32:14.095Z,666.00
2022-10-06T06:33:13.034Z,581.00
2022-10-06T06:34:13.020Z,495.00
2022-10-06T06:35:13.004Z,629.00
2022-10-06T06:36:12.993Z,601.00
2022-10-06T06:37:15.251Z,552.00
2022-10-06T06:38:12.963Z,605.00
2022-10-06T06:39:12.963Z,590.00
2022-10-06T06:40:12.933Z,601.00
2022-10-06T06:41:12.930Z,679.00
2022-10-06T06:42:12.943Z,628.00
2022-10-06T06:43:12.908Z,501.00
2022-10-06T06:44:12.896Z,768.00
2022-10-06T06:45:12.886Z,725.00
2022-10-06T06:46:13.015Z,735.00
2022-10-06T06:47:12.875Z,617.00
2022-10-06T06:48:12.834Z,704.00
2022-10-06T06:49:12.822Z,694.00
2022-10-06T06:50:12.814Z,649.00
2022-10-06T06:51:12.793Z,780.00
2022-10-06T06:52:12.813Z,740.00
2022-10-06T06:53:16.250Z,692.00
2022-10-06T06:54:12.761Z,703.00
2022-10-06T06:55:12.751Z,707.00
2022-10-06T06:56:12.733Z,775.00
2022-10-06T06:57:12.762Z,752.00
2022-10-06T06:58:12.712Z,622.00
2022-10-06T06:59:12.694Z,837.00
2022-10-06T07:00:12.673Z,635.00
2022-10-06T07:01:12.707Z,722.00
2022-10-06T07:02:12.710Z,721.00
2022-10-06T07:03:12.634Z,767.00
2022-10-06T07:04:12.632Z,696.00
2022-10-06T07:05:12.623Z,849.00
2022-10-06T07:06:12.603Z,685.00
2022-10-06T07:07:12.612Z,773.00
2022-10-06T07:08:12.584Z,757.00
2022-10-06T07:09:12.564Z,772.00
2022-10-06T07:10:12.553Z,757.00
2022-10-06T07:11:12.546Z,769.00
2022-10-06T07:12:12.550Z,749.00
2022-10-06T07:13:13.361Z,922.00
2022-10-06T07:14:12.539Z,594.00
2022-10-06T07:15:12.482Z,797.00
2022-10-06T07:16:12.586Z,742.00
2022-10-06T07:17:12.497Z,981.00
2022-10-06T07:18:12.443Z,536.00
2022-10-06T07:19:12.432Z,762.00
2022-10-06T07:20:12.431Z,754.00
2022-10-06T07:21:12.403Z,736.00
2022-10-06T07:22:12.422Z,763.00
2022-10-06T07:23:12.381Z,725.00
2022-10-06T07:24:12.372Z,765.00
2022-10-06T07:25:12.362Z,756.00
2022-10-06T07:26:12.352Z,740.00
2022-10-06T07:27:12.363Z,737.00
2022-10-06T07:28:12.385Z,720.00
2022-10-06T07:29:12.304Z,720.00
2022-10-06T07:30:12.302Z,676.00
2022-10-06T07:31:12.299Z,683.00
2022-10-06T07:32:12.292Z,776.00
2022-10-06T07:33:12.242Z,670.00
2022-10-06T07:34:12.234Z,741.00
2022-10-06T07:35:12.223Z,701.00
2022-10-06T07:36:12.212Z,739.00
2022-10-06T07:37:12.222Z,923.00
2022-10-06T07:38:12.181Z,1021.00
2022-10-06T07:39:12.171Z,1004.00
2022-10-06T07:40:12.161Z,871.00
2022-10-06T07:41:19.269Z,531.00
2022-10-06T07:42:13.162Z,1110.00
2022-10-06T07:43:12.113Z,466.00
2022-10-06T07:44:12.111Z,1019.00
2022-10-06T07:45:12.091Z,533.00
2022-10-06T07:46:12.131Z,617.00
2022-10-06T07:47:12.100Z,453.00
2022-10-06T07:48:12.052Z,967.00
2022-10-06T07:49:12.050Z,620.00
2022-10-06T07:50:12.032Z,1108.00
2022-10-06T07:51:12.011Z,813.00
2022-10-06T07:52:12.034Z,565.00
2022-10-06T07:53:12.012Z,836.00
2022-10-06T07:54:11.980Z,497.00
2022-10-06T07:55:11.961Z,781.00
2022-10-06T07:56:11.951Z,596.00
2022-10-06T07:57:12.021Z,956.00
2022-10-06T07:58:11.970Z,626.00
2022-10-06T07:59:11.922Z,820.00
2022-10-06T08:00:11.903Z,1005.00
2022-10-06T08:01:11.911Z,1181.00
2022-10-06T08:02:11.989Z,386.00
2022-10-06T08:03:11.979Z,697.00
2022-10-06T08:04:11.842Z,561.00
2022-10-06T08:05:11.841Z,856.00
2022-10-06T08:06:11.832Z,501.00
2022-10-06T08:07:11.832Z,748.00
2022-10-06T08:08:11.803Z,639.00
2022-10-06T08:09:11.779Z,846.00
2022-10-06T08:10:11.813Z,1218.00
2022-10-06T08:11:11.761Z,640.00
2022-10-06T08:12:12.277Z,666.00
2022-10-06T08:13:11.730Z,891.00
2022-10-06T08:14:11.734Z,634.00
2022-10-06T08:15:11.701Z,787.00
2022-10-06T08:16:11.748Z,908.00
2022-10-06T08:17:11.701Z,815.00
2022-10-06T08:18:27.170Z,869.00
2022-10-06T08:19:12.641Z,927.00
2022-10-06T08:20:11.651Z,1051.00
2022-10-06T08:21:11.631Z,669.00
2022-10-06T08:22:11.642Z,2246.00
2022-10-06T08:23:11.591Z,497.00
2022-10-06T08:24:11.602Z,2514.00
2022-10-06T08:25:11.968Z,932.00
2022-10-06T08:26:11.562Z,675.00
2022-10-06T08:27:11.597Z,1124.00
2022-10-06T08:28:11.612Z,3097.00
2022-10-06T08:29:11.544Z,1165.00
2022-10-06T08:30:11.541Z,1960.00
2022-10-06T08:31:11.584Z,449.00
2022-10-06T08:32:11.521Z,640.00
2022-10-06T08:33:11.472Z,2525.00
2022-10-06T08:34:12.203Z,663.00
2022-10-06T08:35:11.458Z,2337.00
2022-10-06T08:36:11.421Z,533.00
2022-10-06T08:37:19.777Z,2089.00
2022-10-06T08:38:12.411Z,1222.00
2022-10-06T08:39:11.391Z,685.00
2022-10-06T08:40:11.422Z,892.00
2022-10-06T08:41:11.376Z,839.00
2022-10-06T08:42:11.383Z,825.00
2022-10-06T08:43:11.344Z,1337.00
2022-10-06T08:44:11.332Z,1132.00
2022-10-06T08:45:11.324Z,771.00
2022-10-06T08:46:11.304Z,910.00
2022-10-06T08:47:11.332Z,910.00
2022-10-06T08:48:11.271Z,860.00
2022-10-06T08:49:11.261Z,865.00
2022-10-06T08:50:11.252Z,986.00
2022-10-06T08:51:11.238Z,882.00
2022-10-06T08:52:11.242Z,873.00
2022-10-06T08:53:15.458Z,2473.00
2022-10-06T08:54:12.190Z,853.00
2022-10-06T08:55:11.181Z,1061.00
2022-10-06T08:56:11.162Z,388.00
2022-10-06T08:57:12.730Z,682.00
2022-10-06T08:59:11.122Z,1783.00
2022-10-06T09:00:11.136Z,774.00
2022-10-06T09:01:11.153Z,901.00
2022-10-06T09:02:11.833Z,946.00
2022-10-06T09:03:11.085Z,1003.00
2022-10-06T09:04:11.062Z,1078.00
2022-10-06T09:05:11.053Z,1156.00
2022-10-06T09:06:11.032Z,1169.00
2022-10-06T09:07:11.813Z,1190.00
2022-10-06T09:08:11.008Z,1234.00
2022-10-06T09:09:11.007Z,1259.00
2022-10-06T09:10:10.980Z,1287.00
2022-10-06T09:11:10.974Z,4038.00
2022-10-06T09:12:11.022Z,839.00
2022-10-06T09:13:10.948Z,2978.00
2022-10-06T09:14:10.934Z,468.00
2022-10-06T09:15:10.921Z,1445.00
2022-10-06T09:16:10.922Z,687.00
2022-10-06T09:17:10.930Z,1488.00
2022-10-06T09:18:10.884Z,2067.00
2022-10-06T09:19:10.933Z,899.00
2022-10-06T09:20:10.875Z,2700.00
2022-10-06T09:21:10.840Z,786.00
2022-10-06T09:22:10.903Z,1263.00
2022-10-06T09:23:10.818Z,3307.00
2022-10-06T09:24:10.839Z,711.00
2022-10-06T09:25:10.803Z,1123.00
2022-10-06T09:26:10.776Z,1210.00
2022-10-06T09:27:10.824Z,1237.00
2022-10-06T09:28:10.766Z,3481.00
2022-10-06T09:29:10.733Z,671.00
2022-10-06T09:30:10.743Z,1212.00
2022-10-06T09:31:10.767Z,1167.00
2022-10-06T09:32:11.620Z,1176.00
2022-10-06T09:33:10.756Z,1202.00
2022-10-06T09:34:10.673Z,4056.00
2022-10-06T09:35:10.653Z,2149.00
2022-10-06T09:36:10.672Z,1364.00
2022-10-06T09:37:10.663Z,1394.00
2022-10-06T09:38:10.614Z,1096.00
2022-10-06T09:39:10.612Z,927.00
2022-10-06T09:40:10.584Z,1454.00
2022-10-06T09:41:10.583Z,1048.00
2022-10-06T09:42:10.625Z,1230.00
2022-10-06T09:43:10.576Z,3908.00
2022-10-06T09:44:11.411Z,2028.00
2022-10-06T09:45:11.323Z,1023.00
2022-10-06T09:46:10.520Z,960.00
2022-10-06T09:47:10.553Z,1070.00
2022-10-06T09:48:10.645Z,675.00
2022-10-06T09:49:10.473Z,1245.00
2022-10-06T09:50:10.454Z,3622.00
2022-10-06T09:51:10.452Z,1486.00
2022-10-06T09:52:10.463Z,610.00
2022-10-06T09:53:10.424Z,3342.00
2022-10-06T09:54:10.438Z,722.00
2022-10-06T09:55:10.398Z,1536.00
2022-10-06T09:56:10.385Z,1317.00
2022-10-06T09:57:10.405Z,4259.00
2022-10-06T09:58:10.373Z,820.00
2022-10-06T09:59:10.346Z,1510.00
2022-10-06T10:00:10.336Z,1565.00
2022-10-06T10:01:10.364Z,4159.00
2022-10-06T10:02:10.324Z,1214.00
2022-10-06T10:03:10.534Z,1525.00
2022-10-06T10:04:25.488Z,4105.00
2022-10-06T10:05:11.265Z,1066.00
2022-10-06T10:06:10.255Z,1463.00
2022-10-06T10:07:10.266Z,1436.00
2022-10-06T10:08:10.225Z,3955.00
2022-10-06T10:09:10.214Z,550.00
2022-10-06T10:10:10.197Z,2546.00
2022-10-06T10:11:10.195Z,447.00
2022-10-06T10:12:10.205Z,1746.00
2022-10-06T10:13:10.925Z,1447.00
2022-10-06T10:14:11.506Z,1442.00
2022-10-06T10:15:10.159Z,4260.00
2022-10-06T10:16:10.139Z,771.00
2022-10-06T10:17:10.135Z,1319.00
2022-10-06T10:18:10.095Z,1414.00
2022-10-06T10:19:10.095Z,1407.00
2022-10-06T10:20:10.065Z,1419.00
2022-10-06T10:21:10.065Z,3704.00
2022-10-06T10:22:10.046Z,429.00
2022-10-06T10:23:10.066Z,826.00
2022-10-06T10:24:10.019Z,3768.00
2022-10-06T10:25:10.027Z,1474.00
2022-10-06T10:26:09.988Z,1135.00
2022-10-06T10:27:09.975Z,559.00
2022-10-06T10:28:10.163Z,1406.00
2022-10-06T10:29:09.976Z,1415.00
2022-10-06T10:30:09.937Z,1452.00
2022-10-06T10:31:09.988Z,1463.00
2022-10-06T10:32:09.917Z,1460.00
2022-10-06T10:33:10.026Z,1462.00
2022-10-06T10:34:23.182Z,1514.00
2022-10-06T10:35:10.878Z,1628.00
2022-10-06T10:36:09.886Z,1740.00
2022-10-06T10:37:09.849Z,1948.00
2022-10-06T10:38:14.429Z,1857.00
2022-10-06T10:39:10.826Z,1572.00
2022-10-06T10:40:09.813Z,1582.00
2022-10-06T10:41:10.546Z,1657.00
2022-10-06T10:42:09.817Z,1703.00
2022-10-06T10:43:10.614Z,1713.00
2022-10-06T10:44:09.757Z,1871.00
2022-10-06T10:45:09.749Z,1719.00
2022-10-06T10:46:09.749Z,1800.00
2022-10-06T10:47:09.721Z,1586.00
2022-10-06T10:48:09.748Z,4404.00
2022-10-06T10:49:09.688Z,915.00
2022-10-06T10:50:09.679Z,1778.00
2022-10-06T10:51:09.688Z,1905.00
2022-10-06T10:52:09.649Z,2439.00
2022-10-06T10:53:09.703Z,2268.00
2022-10-06T10:54:09.628Z,2038.00
2022-10-06T10:55:09.618Z,1636.00
2022-10-06T10:56:09.633Z,1606.00
2022-10-06T10:57:09.608Z,1592.00
2022-10-06T10:58:10.532Z,1668.00
2022-10-06T10:59:09.569Z,1588.00
2022-10-06T11:00:09.558Z,1496.00
2022-10-06T11:01:09.570Z,1522.00
2022-10-06T11:02:09.559Z,1556.00
2022-10-06T11:03:10.230Z,1578.00
2022-10-06T11:04:09.510Z,1591.00
2022-10-06T11:05:09.521Z,2314.00
2022-10-06T11:06:09.480Z,1538.00
2022-10-06T11:07:09.460Z,2019.00
2022-10-06T11:08:09.478Z,2234.00
2022-10-06T11:09:09.440Z,1829.00
2022-10-06T11:10:10.520Z,1459.00
2022-10-06T11:11:10.230Z,1436.00
2022-10-06T11:12:09.402Z,1423.00
2022-10-06T11:13:09.425Z,1413.00
2022-10-06T11:14:09.380Z,1434.00
2022-10-06T11:15:09.457Z,1467.00
2022-10-06T11:16:09.383Z,1511.00
2022-10-06T11:17:09.332Z,1578.00
2022-10-06T11:18:09.352Z,1624.00
2022-10-06T11:19:09.331Z,1750.00
2022-10-06T11:20:09.298Z,1616.00
2022-10-06T11:21:09.327Z,1632.00
2022-10-06T11:22:09.273Z,1720.00
2022-10-06T11:23:09.282Z,1789.00
2022-10-06T11:24:09.242Z,1983.00
2022-10-06T11:25:09.253Z,1561.00
2022-10-06T11:26:09.219Z,1563.00
2022-10-06T11:27:09.247Z,1627.00
2022-10-06T11:28:09.229Z,1596.00
2022-10-06T11:29:09.182Z,1518.00
2022-10-06T11:30:09.162Z,1530.00
2022-10-06T11:31:09.220Z,1575.00
2022-10-06T11:32:09.134Z,1590.00
2022-10-06T11:33:09.154Z,4743.00
2022-10-06T11:34:09.109Z,746.00
2022-10-06T11:35:09.101Z,1175.00
2022-10-06T11:36:09.084Z,4228.00
2022-10-06T11:37:09.075Z,840.00
2022-10-06T11:38:09.086Z,1543.00
2022-10-06T11:39:09.044Z,1474.00
2022-10-06T11:40:09.034Z,1441.00
2022-10-06T11:41:10.010Z,1445.00
2022-10-06T11:42:09.023Z,1430.00
2022-10-06T11:43:09.030Z,1428.00
2022-10-06T11:44:08.974Z,1444.00
2022-10-06T11:45:08.978Z,1416.00
2022-10-06T11:46:08.982Z,1444.00
2022-10-06T11:47:09.007Z,1487.00
2022-10-06T11:48:08.965Z,1499.00
2022-10-06T11:49:08.924Z,1479.00
2022-10-06T11:50:08.905Z,1462.00
2022-10-06T11:51:08.917Z,1460.00
2022-10-06T11:52:09.078Z,1428.00
2022-10-06T11:53:08.896Z,1397.00
2022-10-06T11:54:08.848Z,1415.00
2022-10-06T11:55:08.836Z,1433.00
2022-10-06T11:56:08.827Z,1433.00
2022-10-06T11:57:08.817Z,1416.00
2022-10-06T11:58:29.867Z,1396.00
2022-10-06T11:59:09.787Z,1389.00
2022-10-06T12:00:08.777Z,1383.00
2022-10-06T12:01:10.207Z,1357.00
2022-10-06T12:02:08.858Z,1338.00
2022-10-06T12:03:08.929Z,1339.00
2022-10-06T12:04:08.733Z,1317.00
2022-10-06T12:05:28.564Z,1272.00
2022-10-06T12:06:09.838Z,1273.00
2022-10-06T12:07:08.688Z,1277.00
2022-10-06T12:08:08.708Z,3992.00
2022-10-06T12:09:08.686Z,888.00
2022-10-06T12:10:08.650Z,2139.00
2022-10-06T12:11:08.628Z,1157.00
2022-10-06T12:12:08.609Z,1276.00
2022-10-06T12:13:13.980Z,1274.00
2022-10-06T12:15:59.716Z,1261.00
2022-10-06T12:17:14.000Z,1239.00
2022-10-06T12:18:09.560Z,1244.00
2022-10-06T12:19:08.533Z,1239.00
2022-10-06T12:20:08.509Z,1230.00
2022-10-06T12:21:08.505Z,1220.00
2022-10-06T12:22:08.480Z,1214.00
2022-10-06T12:23:08.504Z,1215.00
2022-10-06T12:24:08.523Z,1208.00
2022-10-06T12:25:08.450Z,1204.00
2022-10-06T12:26:08.431Z,1206.00
2022-10-06T12:27:08.421Z,1212.00
2022-10-06T12:28:08.503Z,1209.00
2022-10-06T12:29:09.843Z,1202.00
2022-10-06T12:30:08.382Z,1187.00
2022-10-06T12:31:08.419Z,1180.00
2022-10-06T12:32:08.350Z,1204.00
2022-10-06T12:33:08.371Z,1216.00
2022-10-06T12:34:09.774Z,1223.00
2022-10-06T12:35:08.325Z,1219.00
2022-10-06T12:36:08.304Z,1210.00
2022-10-06T12:37:08.291Z,1196.00
2022-10-06T12:38:08.303Z,1187.00
2022-10-06T12:39:08.283Z,1184.00
2022-10-06T12:40:08.355Z,1187.00
2022-10-06T12:41:08.244Z,1183.00
2022-10-06T12:42:08.225Z,1177.00
2022-10-06T12:43:08.242Z,1175.00
2022-10-06T12:44:08.206Z,1175.00
2022-10-06T12:45:08.192Z,1174.00